Time;durP1;ratioP1;P1;durP2;ratioP2;P2;SDS_P1;SDS_P2;PMS_P1;PMS_P2;Temp;Humidity;BMP_temperature;BMP_pressure;BME280_temperature;BME280_humidity;BME280_pressure;Samples;Min_cycle;Max_cycle;Signal;HPM_P1;HPM_P2
2021/08/03 00:01:03;;;;;;;3.92;3.53;;;12.30;77.70;;;;;;5085715;28;20499;-74
2021/08/03 00:03:42;;;;;;;5.57;3.80;;;12.20;77.90;;;;;;5074189;28;20498;-72
2021/08/03 00:06:30;;;;;;;4.65;3.80;;;12.20;78.10;;;;;;5083297;28;20055;-72
2021/08/03 00:08:59;;;;;;;5.72;4.20;;;12.00;78.30;;;;;;5073141;28;20044;-72
2021/08/03 00:11:28;;;;;;;12.45;4.93;;;12.00;78.60;;;;;;5086776;28;20541;-72
2021/08/03 00:13:59;;;;;;;9.68;5.13;;;11.90;79.00;;;;;;5072600;28;20056;-72
2021/08/03 00:16:33;;;;;;;7.15;4.45;;;11.80;79.40;;;;;;5085916;28;20044;-73
2021/08/03 00:19:04;;;;;;;7.93;4.88;;;11.80;79.60;;;;;;5097239;28;20044;-73
2021/08/03 00:21:36;;;;;;;7.25;4.75;;;11.70;80.00;;;;;;5106766;28;20055;-73
2021/08/03 00:24:07;;;;;;;9.43;4.10;;;11.60;80.30;;;;;;5074067;28;20408;-73
2021/08/03 00:26:39;;;;;;;10.30;4.40;;;11.50;80.50;;;;;;5091991;28;20059;-73
2021/08/03 00:29:15;;;;;;;9.35;4.00;;;11.50;80.70;;;;;;5091855;28;20036;-72
2021/08/03 00:31:49;;;;;;;6.57;4.90;;;11.40;81.00;;;;;;5090707;28;20056;-72
2021/08/03 00:34:20;;;;;;;7.38;4.85;;;11.40;81.10;;;;;;5088687;28;20032;-72
2021/08/03 00:36:50;;;;;;;6.70;4.78;;;11.30;81.30;;;;;;5089468;28;20071;-72
2021/08/03 00:39:24;;;;;;;7.32;4.47;;;11.30;81.40;;;;;;5091471;28;20383;-72
2021/08/03 00:42:01;;;;;;;12.27;5.95;;;11.20;81.60;;;;;;5090045;28;20372;-72
2021/08/03 00:44:49;;;;;;;14.50;5.90;;;11.10;82.00;;;;;;5090247;28;20513;-72
2021/08/03 00:47:29;;;;;;;18.40;5.93;;;11.00;82.40;;;;;;5090452;28;20514;-73
2021/08/03 00:50:08;;;;;;;11.75;6.30;;;11.00;82.60;;;;;;5090002;28;20056;-73
2021/08/03 00:52:41;;;;;;;17.90;6.80;;;10.80;82.80;;;;;;5089772;28;20044;-73
2021/08/03 00:55:13;;;;;;;14.18;6.72;;;10.80;83.20;;;;;;5090353;28;20044;-73
2021/08/03 00:57:49;;;;;;;20.92;7.97;;;10.80;83.50;;;;;;5092028;28;20055;-72
2021/08/03 01:00:21;;;;;;;15.98;7.28;;;10.70;83.70;;;;;;5094197;28;20059;-73
2021/08/03 01:02:53;;;;;;;8.68;4.50;;;10.70;83.90;;;;;;5092711;28;20048;-73
2021/08/03 01:05:24;;;;;;;5.40;4.60;;;10.60;84.20;;;;;;5093409;28;20036;-73
2021/08/03 01:08:05;;;;;;;5.60;4.72;;;10.60;84.30;;;;;;5072087;28;20048;-73
2021/08/03 01:11:10;;;;;;;7.65;5.00;;;10.60;84.30;;;;;;5093544;28;20055;-73
2021/08/03 01:13:48;;;;;;;8.55;4.45;;;10.60;84.30;;;;;;5092471;28;20055;-73
2021/08/03 01:16:37;;;;;;;8.52;5.43;;;10.60;84.10;;;;;;5086509;28;20071;-73
2021/08/03 01:19:46;;;;;;;6.18;4.68;;;10.50;84.20;;;;;;5091168;28;20066;-73
2021/08/03 01:22:32;;;;;;;10.90;5.32;;;10.50;84.30;;;;;;5072275;28;20051;-72
2021/08/03 01:25:15;;;;;;;6.85;5.05;;;10.40;84.30;;;;;;5093160;28;20063;-72
2021/08/03 01:28:11;;;;;;;5.85;5.25;;;10.30;84.50;;;;;;5093597;28;20043;-72
2021/08/03 01:31:23;;;;;;;8.55;5.43;;;10.30;84.70;;;;;;5092262;28;20040;-73
2021/08/03 01:34:10;;;;;;;12.30;5.50;;;10.40;84.60;;;;;;5089113;28;20036;-72
2021/08/03 01:36:45;;;;;;;7.20;4.93;;;10.40;84.60;;;;;;5090435;28;20043;-72
2021/08/03 01:39:17;;;;;;;6.53;5.03;;;10.50;84.40;;;;;;5089626;28;20052;-73
2021/08/03 01:41:49;;;;;;;8.52;5.50;;;10.50;84.30;;;;;;5092951;28;20387;-72
2021/08/03 01:44:19;;;;;;;5.93;5.30;;;10.50;84.30;;;;;;5091429;28;20494;-72
2021/08/03 01:46:51;;;;;;;5.35;4.78;;;10.50;84.30;;;;;;5092589;28;20051;-72
2021/08/03 01:49:23;;;;;;;5.90;4.70;;;10.50;84.30;;;;;;5093039;28;20051;-72
2021/08/03 01:51:57;;;;;;;6.53;5.03;;;10.50;84.30;;;;;;5089675;28;20043;-73
2021/08/03 01:54:29;;;;;;;6.88;4.45;;;10.50;84.20;;;;;;5093619;28;20036;-72
2021/08/03 01:57:00;;;;;;;9.02;5.15;;;10.50;84.20;;;;;;5091158;28;20514;-72
2021/08/03 01:59:32;;;;;;;6.40;5.70;;;10.50;84.20;;;;;;5091820;28;20032;-73
2021/08/03 02:02:02;;;;;;;10.50;5.90;;;10.40;84.30;;;;;;5089949;28;20036;-71
2021/08/03 02:04:34;;;;;;;8.70;5.40;;;10.40;84.30;;;;;;5092433;28;20521;-72
2021/08/03 02:07:06;;;;;;;6.22;4.97;;;10.30;84.50;;;;;;5091885;28;20439;-72
2021/08/03 02:09:38;;;;;;;9.25;5.47;;;10.30;84.70;;;;;;5091729;28;20040;-72
2021/08/03 02:12:06;;;;;;;8.85;5.63;;;10.30;84.70;;;;;;5090536;28;20035;-72
2021/08/03 02:14:36;;;;;;;7.93;5.93;;;10.30;84.60;;;;;;5089160;28;20154;-73
2021/08/03 02:17:09;;;;;;;12.27;5.97;;;10.30;84.70;;;;;;5085859;28;20048;-72
2021/08/03 02:19:47;;;;;;;12.68;6.00;;;10.30;84.70;;;;;;5073362;28;20051;-72
2021/08/03 02:22:16;;;;;;;8.27;5.80;;;10.20;84.90;;;;;;5089856;28;20048;-72
2021/08/03 02:24:55;;;;;;;8.90;6.20;;;10.10;85.00;;;;;;5090472;28;20055;-72
2021/08/03 02:27:26;;;;;;;11.23;6.95;;;10.10;85.10;;;;;;5089350;28;20428;-73
2021/08/03 02:29:56;;;;;;;10.50;7.57;;;10.00;85.30;;;;;;5086763;28;20052;-72
2021/08/03 02:32:35;;;;;;;12.57;7.63;;;9.90;85.50;;;;;;5090764;28;20520;-72
2021/08/03 02:35:17;;;;;;;14.65;7.80;;;9.90;85.90;;;;;;5087156;28;20040;-73
2021/08/03 02:37:56;;;;;;;14.98;8.05;;;9.90;86.10;;;;;;5088683;28;20410;-73
2021/08/03 02:40:24;;;;;;;9.30;6.30;;;9.80;86.20;;;;;;5090570;28;20475;-72
2021/08/03 02:43:03;;;;;;;13.20;5.78;;;9.80;86.20;;;;;;5071023;28;20045;-72
2021/08/03 02:45:31;;;;;;;8.73;5.78;;;9.90;86.10;;;;;;5086517;28;20035;-72
2021/08/03 02:48:12;;;;;;;7.97;5.60;;;9.90;86.10;;;;;;5087846;28;20060;-72
2021/08/03 02:50:43;;;;;;;6.90;5.05;;;9.90;86.10;;;;;;5085958;28;20055;-72
2021/08/03 02:53:25;;;;;;;9.48;5.78;;;10.00;86.00;;;;;;5085548;28;20055;-72
2021/08/03 02:56:02;;;;;;;6.53;4.72;;;10.00;86.00;;;;;;5084011;28;20055;-72
2021/08/03 02:59:04;;;;;;;6.32;5.25;;;9.90;86.00;;;;;;5089452;28;20521;-72
2021/08/03 03:01:37;;;;;;;6.32;4.95;;;10.00;86.00;;;;;;5088654;28;20491;-73
2021/08/03 03:04:09;;;;;;;;;;;10.00;85.80;;;;;;5087278;28;20040;-74
2021/08/03 03:06:40;;;;;;;8.20;5.63;;;10.00;85.70;;;;;;5062543;28;19935;-73
2021/08/03 03:09:09;;;;;;;7.82;5.57;;;9.90;85.70;;;;;;5088825;28;20418;-72
2021/08/03 03:11:40;;;;;;;7.70;5.60;;;9.90;85.70;;;;;;5081861;28;20043;-73
2021/08/03 03:14:12;;;;;;;7.28;5.63;;;9.90;85.80;;;;;;5063463;28;20051;-73
2021/08/03 03:16:41;;;;;;;8.13;6.07;;;9.90;85.90;;;;;;5090018;28;20044;-73
2021/08/03 03:19:15;;;;;;;7.80;5.97;;;9.90;86.00;;;;;;5090895;28;20202;-73
2021/08/03 03:21:45;;;;;;;9.95;5.60;;;9.80;86.10;;;;;;5091771;28;20048;-73
2021/08/03 03:24:14;;;;;;;9.60;6.30;;;9.80;86.10;;;;;;5092830;28;20463;-73
2021/08/03 03:26:44;;;;;;;9.55;6.85;;;9.80;86.20;;;;;;5089511;28;20054;-73
2021/08/03 03:29:16;;;;;;;8.93;7.00;;;9.80;86.30;;;;;;5081615;28;20048;-73
2021/08/03 03:31:47;;;;;;;7.30;6.45;;;9.80;86.50;;;;;;5091374;28;20043;-73
2021/08/03 03:34:16;;;;;;;11.32;7.47;;;9.80;86.60;;;;;;5084337;28;20040;-73
2021/08/03 03:36:47;;;;;;;12.10;7.90;;;9.80;86.60;;;;;;5082960;28;20402;-73
2021/08/03 03:39:16;;;;;;;12.82;7.07;;;9.70;86.70;;;;;;5059397;28;20040;-73
2021/08/03 03:41:56;;;;;;;11.00;7.28;;;9.70;86.80;;;;;;5074401;28;20047;-73
2021/08/03 03:44:25;;;;;;;9.52;7.30;;;9.60;86.90;;;;;;5059578;28;20049;-73
2021/08/03 03:46:59;;;;;;;17.98;8.13;;;9.50;87.00;;;;;;5063375;28;20047;-73
2021/08/03 03:49:36;;;;;;;11.18;7.97;;;9.40;87.20;;;;;;5079276;28;20518;-73
2021/08/03 03:52:05;;;;;;;13.10;8.50;;;9.30;87.30;;;;;;5089649;28;20048;-72
2021/08/03 03:54:39;;;;;;;15.93;8.65;;;9.30;87.40;;;;;;5088520;28;20044;-73
2021/08/03 03:57:10;;;;;;;14.60;9.85;;;9.20;87.60;;;;;;5086693;28;20546;-73
2021/08/03 03:59:46;;;;;;;23.70;10.68;;;9.20;87.60;;;;;;5089347;28;20055;-72
2021/08/03 04:02:14;;;;;;;22.85;10.35;;;9.10;87.80;;;;;;5087375;28;20048;-73
2021/08/03 04:04:43;;;;;;;19.70;10.20;;;9.10;87.90;;;;;;5087943;28;20486;-73
2021/08/03 04:07:11;;;;;;;17.90;10.63;;;9.10;88.00;;;;;;5078993;28;20718;-72
2021/08/03 04:09:41;;;;;;;22.38;10.38;;;9.10;88.10;;;;;;5087691;28;20479;-73
2021/08/03 04:12:20;;;;;;;18.52;10.43;;;9.00;88.20;;;;;;5087301;28;20502;-72
2021/08/03 04:14:48;;;;;;;20.30;8.45;;;9.00;88.40;;;;;;5088832;28;20055;-72
2021/08/03 04:17:18;;;;;;;25.13;9.30;;;8.90;88.50;;;;;;5078615;28;20052;-73
2021/08/03 04:19:46;;;;;;;21.65;8.00;;;8.90;88.60;;;;;;5089019;28;20044;-73
2021/08/03 04:22:13;;;;;;;26.65;10.13;;;8.80;88.70;;;;;;5085858;28;20059;-72
2021/08/03 04:24:41;;;;;;;17.48;8.98;;;8.80;88.80;;;;;;5091421;28;20052;-73
2021/08/03 04:27:08;;;;;;;16.88;8.45;;;8.80;89.00;;;;;;5089177;28;20557;-73
2021/08/03 04:29:36;;;;;;;13.30;8.40;;;8.70;89.10;;;;;;5090856;28;20044;-73
2021/08/03 04:32:04;;;;;;;14.45;9.07;;;8.70;89.10;;;;;;5090110;28;20055;-73
2021/08/03 04:34:33;;;;;;;13.25;8.80;;;8.70;89.20;;;;;;5079060;28;20055;-73
2021/08/03 04:37:01;;;;;;;10.90;8.20;;;8.80;89.10;;;;;;5086429;28;20422;-73
2021/08/03 04:39:29;;;;;;;12.57;9.20;;;8.70;89.10;;;;;;5094271;28;20052;-73
2021/08/03 04:41:57;;;;;;;16.70;9.75;;;8.70;89.10;;;;;;5095057;28;20048;-72
2021/08/03 04:44:24;;;;;;;19.73;8.98;;;8.60;89.20;;;;;;5094477;28;20055;-72
2021/08/03 04:46:52;;;;;;;14.88;9.15;;;8.60;89.30;;;;;;5094782;28;20044;-73
2021/08/03 04:49:19;;;;;;;13.63;9.23;;;8.60;89.30;;;;;;5086645;28;20052;-72
2021/08/03 04:51:47;;;;;;;15.60;9.43;;;8.60;89.40;;;;;;5092795;28;20044;-72
2021/08/03 04:54:15;;;;;;;17.95;9.50;;;8.50;89.40;;;;;;5095081;28;20052;-73
2021/08/03 04:56:42;;;;;;;15.48;8.75;;;8.50;89.40;;;;;;5082290;28;20059;-72
2021/08/03 04:59:10;;;;;;;18.63;9.73;;;8.50;89.40;;;;;;5085762;28;20048;-72
2021/08/03 05:01:37;;;;;;;19.63;9.88;;;8.50;89.50;;;;;;5088438;28;20060;-73
2021/08/03 05:04:05;;;;;;;19.95;10.68;;;8.50;89.40;;;;;;5089311;28;20040;-73
2021/08/03 05:06:33;;;;;;;22.75;10.18;;;8.50;89.40;;;;;;5092726;28;20395;-73
2021/08/03 05:09:00;;;;;;;16.45;10.27;;;8.60;89.50;;;;;;5093689;28;20055;-73
2021/08/03 05:11:28;;;;;;;18.55;10.40;;;8.60;89.50;;;;;;5095040;28;20052;-72
2021/08/03 05:13:56;;;;;;;15.68;10.40;;;8.60;89.40;;;;;;5085227;28;20044;-73
2021/08/03 05:16:25;;;;;;;14.77;9.93;;;8.70;89.40;;;;;;5085463;28;20037;-73
2021/08/03 05:18:52;;;;;;;14.07;9.98;;;8.70;89.50;;;;;;5077766;28;20122;-73
2021/08/03 05:21:20;;;;;;;16.50;10.48;;;8.80;89.50;;;;;;5094759;28;20044;-73
2021/08/03 05:23:48;;;;;;;15.60;10.50;;;8.80;89.40;;;;;;5092030;28;20058;-73
2021/08/03 05:26:16;;;;;;;21.38;10.57;;;8.90;89.40;;;;;;5093529;28;20052;-73
2021/08/03 05:28:44;;;;;;;20.00;10.98;;;9.00;89.30;;;;;;5093760;28;20486;-73
2021/08/03 05:31:13;;;;;;;18.02;10.90;;;9.00;89.20;;;;;;5092465;28;20498;-73
2021/08/03 05:33:41;;;;;;;17.90;11.43;;;9.10;89.20;;;;;;5094345;28;20048;-73
2021/08/03 05:36:08;;;;;;;23.45;12.40;;;9.20;89.20;;;;;;5090216;28;20039;-72
2021/08/03 05:38:36;;;;;;;22.98;12.40;;;9.20;89.10;;;;;;5086457;28;20399;-73
2021/08/03 05:41:04;;;;;;;22.90;12.30;;;9.30;89.10;;;;;;5056996;28;20048;-73
2021/08/03 05:43:31;;;;;;;23.75;11.55;;;9.30;89.10;;;;;;5081109;28;20523;-73
2021/08/03 05:45:59;;;;;;;21.67;11.63;;;9.30;89.10;;;;;;5093840;28;20044;-72
2021/08/03 05:48:27;;;;;;;15.88;10.43;;;9.40;89.10;;;;;;5090390;28;20040;-73
2021/08/03 05:50:54;;;;;;;20.52;10.13;;;9.50;89.10;;;;;;5087065;28;20052;-73
2021/08/03 05:53:22;;;;;;;22.30;11.02;;;9.60;89.10;;;;;;5092198;28;20048;-72
2021/08/03 05:55:50;;;;;;;19.50;11.23;;;9.70;88.90;;;;;;5093224;28;20069;-72
2021/08/03 05:58:17;;;;;;;26.10;11.40;;;9.70;88.80;;;;;;5092502;28;20055;-72
2021/08/03 06:00:45;;;;;;;17.55;10.52;;;9.80;88.80;;;;;;5090272;28;20059;-74
2021/08/03 06:03:13;;;;;;;17.98;10.35;;;10.00;88.60;;;;;;5091950;28;20048;-73
2021/08/03 06:05:42;;;;;;;17.48;10.07;;;10.00;88.50;;;;;;5087125;28;20048;-73
2021/08/03 06:08:13;;;;;;;17.20;10.02;;;10.20;88.30;;;;;;5089467;28;20044;-73
2021/08/03 06:10:44;;;;;;;17.75;11.50;;;10.30;88.10;;;;;;5089037;28;20032;-71
2021/08/03 06:13:12;;;;;;;18.23;10.93;;;10.50;87.90;;;;;;5089459;28;20040;-73
2021/08/03 06:15:41;;;;;;;18.67;11.18;;;10.60;87.70;;;;;;5085435;28;20045;-73
2021/08/03 06:18:24;;;;;;;17.98;10.15;;;10.80;87.50;;;;;;5082878;28;20048;-73
2021/08/03 06:20:54;;;;;;;18.17;9.93;;;10.90;87.20;;;;;;5085198;28;20428;-74
2021/08/03 06:23:24;;;;;;;15.65;10.80;;;11.10;86.90;;;;;;5087191;28;20044;-73
2021/08/03 06:25:53;;;;;;;14.63;9.73;;;11.30;86.60;;;;;;5082640;28;20044;-73
2021/08/03 06:28:22;;;;;;;16.58;10.30;;;11.40;86.30;;;;;;5085910;28;20046;-73
2021/08/03 06:30:51;;;;;;;14.23;10.02;;;11.50;85.90;;;;;;5088104;28;20043;-73
2021/08/03 06:33:21;;;;;;;18.05;9.80;;;11.70;85.60;;;;;;5079675;28;20051;-73
2021/08/03 06:35:50;;;;;;;12.25;9.80;;;11.80;85.20;;;;;;5072528;28;20052;-73
2021/08/03 06:38:18;;;;;;;12.95;8.43;;;11.90;84.80;;;;;;5086121;28;20032;-73
2021/08/03 06:40:50;;;;;;;20.13;8.52;;;12.20;84.30;;;;;;5075128;28;20047;-73
2021/08/03 06:43:23;;;;;;;12.90;8.25;;;12.30;83.60;;;;;;5090522;28;20052;-73
2021/08/03 06:46:00;;;;;;;16.02;8.43;;;12.40;83.10;;;;;;5093089;28;20056;-72
2021/08/03 06:48:36;;;;;;;14.85;8.70;;;12.60;82.50;;;;;;5092921;28;20048;-72
2021/08/03 06:51:10;;;;;;;13.00;8.68;;;12.80;82.10;;;;;;5092806;28;20174;-73
2021/08/03 06:53:40;;;;;;;9.90;7.70;;;12.90;81.80;;;;;;5092424;28;20411;-73
2021/08/03 06:56:09;;;;;;;11.23;8.00;;;13.00;81.30;;;;;;5091567;28;20044;-73
2021/08/03 06:58:58;;;;;;;10.80;7.25;;;13.20;80.90;;;;;;5090446;28;20036;-71
2021/08/03 07:01:47;;;;;;;13.73;7.78;;;13.30;80.70;;;;;;5089182;28;20047;-73
2021/08/03 07:04:32;;;;;;;9.80;6.85;;;13.50;79.90;;;;;;5094992;28;20048;-72
2021/08/03 07:07:01;;;;;;;11.90;7.15;;;13.60;79.30;;;;;;5085640;28;20036;-72
2021/08/03 07:09:30;;;;;;;12.93;7.25;;;13.70;79.00;;;;;;5091828;28;20052;-72
2021/08/03 07:11:58;;;;;;;15.50;6.72;;;13.80;78.50;;;;;;5091085;28;20055;-72
2021/08/03 07:14:26;;;;;;;10.77;6.38;;;13.90;78.20;;;;;;5092593;28;20051;-72
2021/08/03 07:16:56;;;;;;;11.15;6.40;;;14.00;77.80;;;;;;5092269;28;20497;-71
2021/08/03 07:19:24;;;;;;;17.20;6.60;;;14.20;77.60;;;;;;5092247;28;20051;-72
2021/08/03 07:21:52;;;;;;;14.45;6.07;;;14.30;77.20;;;;;;5091036;28;20528;-72
2021/08/03 07:24:19;;;;;;;9.35;5.65;;;14.40;76.60;;;;;;5091343;28;20036;-72
2021/08/03 07:26:47;;;;;;;12.32;6.55;;;14.50;76.20;;;;;;5090618;28;20044;-72
2021/08/03 07:29:15;;;;;;;11.23;6.03;;;14.70;75.80;;;;;;5088694;28;20051;-73
2021/08/03 07:31:43;;;;;;;11.23;5.47;;;14.80;75.40;;;;;;5085795;28;20406;-72
2021/08/03 07:34:11;;;;;;;11.77;5.95;;;14.90;75.00;;;;;;5085870;28;20048;-73
2021/08/03 07:36:38;;;;;;;10.63;5.20;;;15.10;74.60;;;;;;5083588;28;20044;-73
2021/08/03 07:39:08;;;;;;;12.45;5.28;;;15.20;74.20;;;;;;5089630;28;20075;-72
2021/08/03 07:41:37;;;;;;;13.05;4.88;;;15.30;73.80;;;;;;5091121;28;20502;-73
2021/08/03 07:44:06;;;;;;;8.25;5.43;;;15.20;73.50;;;;;;5090009;28;20395;-72
2021/08/03 07:46:35;;;;;;;10.52;5.15;;;15.20;73.30;;;;;;5078963;28;20053;-71
2021/08/03 07:49:05;;;;;;;8.27;5.30;;;15.10;73.30;;;;;;5084678;28;20036;-71
2021/08/03 07:51:33;;;;;;;8.73;5.22;;;15.00;73.20;;;;;;5098442;28;20044;-72
2021/08/03 07:54:01;;;;;;;4.57;3.72;;;14.90;73.20;;;;;;5085217;28;21650;-72
2021/08/03 07:56:29;;;;;;;8.02;4.50;;;14.80;73.30;;;;;;5086852;28;20048;-72
2021/08/03 07:58:57;;;;;;;7.45;3.60;;;14.70;73.30;;;;;;5089682;28;20498;-72
2021/08/03 08:01:25;;;;;;;5.35;3.33;;;14.70;73.20;;;;;;5086949;28;20051;-72
2021/08/03 08:03:53;;;;;;;8.80;3.45;;;14.70;72.80;;;;;;5090637;28;20047;-72
2021/08/03 08:06:20;;;;;;;3.53;3.20;;;14.70;72.60;;;;;;5088535;28;20052;-74
2021/08/03 08:08:48;;;;;;;8.20;3.30;;;14.80;72.30;;;;;;5088499;28;20054;-72
2021/08/03 08:11:16;;;;;;;3.95;3.15;;;14.80;72.10;;;;;;5080860;28;20068;-72
2021/08/03 08:13:43;;;;;;;5.53;3.42;;;14.90;71.90;;;;;;5072071;28;20107;-72
2021/08/03 08:16:11;;;;;;;3.97;3.30;;;14.90;71.60;;;;;;5079025;28;20060;-72
2021/08/03 08:18:39;;;;;;;10.30;3.33;;;15.00;71.30;;;;;;5082816;28;20407;-72
2021/08/03 08:21:07;;;;;;;5.40;2.88;;;15.20;71.00;;;;;;5084147;28;20040;-73
2021/08/03 08:23:34;;;;;;;5.90;2.70;;;15.30;70.40;;;;;;5083274;28;20047;-74
2021/08/03 08:26:03;;;;;;;6.45;2.70;;;15.30;70.10;;;;;;5089380;28;20048;-72
2021/08/03 08:28:31;;;;;;;3.88;2.80;;;15.40;69.70;;;;;;5070140;28;20051;-80
2021/08/03 08:30:58;;;;;;;4.57;2.75;;;15.50;69.40;;;;;;5088377;28;20402;-73
2021/08/03 08:33:26;;;;;;;3.97;2.95;;;15.60;69.20;;;;;;5087642;28;20052;-76
2021/08/03 08:35:55;;;;;;;5.88;2.88;;;15.70;69.10;;;;;;5088620;28;20505;-76
2021/08/03 08:38:23;;;;;;;5.90;3.33;;;15.80;68.50;;;;;;5086462;28;20048;-76
2021/08/03 08:40:53;;;;;;;5.13;3.45;;;15.80;68.40;;;;;;5076557;28;20040;-75
2021/08/03 08:43:21;;;;;;;7.80;2.80;;;15.90;68.00;;;;;;5079224;28;20064;-73
2021/08/03 08:45:54;;;;;;;4.53;3.00;;;16.00;67.70;;;;;;5079828;28;20048;-74
2021/08/03 08:48:22;;;;;;;;;;;16.20;67.20;;;;;;5091178;28;20483;-73
2021/08/03 08:50:54;;;;;;;3.00;2.38;;;16.30;66.90;;;;;;5089147;28;19920;-72
2021/08/03 08:53:25;;;;;;;3.10;2.28;;;16.30;66.90;;;;;;5086748;28;20040;-72
2021/08/03 08:55:53;;;;;;;4.45;2.08;;;16.50;66.30;;;;;;5088705;28;20048;-73
2021/08/03 08:58:21;;;;;;;4.90;2.75;;;16.60;65.50;;;;;;5088505;28;20047;-72
2021/08/03 09:00:48;;;;;;;2.63;1.95;;;16.60;65.00;;;;;;5088358;28;20048;-75
2021/08/03 09:03:17;;;;;;;5.65;1.98;;;16.70;64.70;;;;;;5088168;28;20051;-74
2021/08/03 09:05:45;;;;;;;4.00;2.40;;;16.70;64.40;;;;;;5088385;28;20048;-79
2021/08/03 09:08:12;;;;;;;3.33;2.92;;;16.80;64.20;;;;;;5089185;28;20386;-75
2021/08/03 09:10:41;;;;;;;2.65;2.22;;;16.80;64.10;;;;;;5088306;28;20124;-74
2021/08/03 09:13:18;;;;;;;5.15;2.47;;;16.90;63.60;;;;;;5083826;28;20036;-77
2021/08/03 09:15:56;;;;;;;2.58;2.15;;;16.90;63.10;;;;;;5081020;28;20048;-74
2021/08/03 09:18:34;;;;;;;4.10;2.35;;;17.00;62.60;;;;;;5092651;28;20040;-73
2021/08/03 09:21:02;;;;;;;6.03;2.42;;;17.10;62.60;;;;;;5094928;28;20067;-73
2021/08/03 09:23:50;;;;;;;6.45;2.22;;;17.20;62.40;;;;;;5094779;28;20403;-73
2021/08/03 09:26:20;;;;;;;2.03;1.75;;;17.30;60.90;;;;;;5094518;28;20415;-77
2021/08/03 09:29:05;;;;;;;2.58;1.88;;;17.30;60.90;;;;;;5093419;28;20074;-74
2021/08/03 09:31:34;;;;;;;2.22;1.67;;;17.50;60.40;;;;;;5090486;28;20044;-75
2021/08/03 09:34:16;;;;;;;2.13;1.90;;;17.60;60.30;;;;;;5085142;28;20040;-73
2021/08/03 09:36:49;;;;;;;2.92;2.25;;;17.80;59.70;;;;;;5094672;28;20055;-74
2021/08/03 09:39:39;;;;;;;4.80;2.20;;;17.80;59.40;;;;;;5092130;28;20052;-73
2021/08/03 09:42:16;;;;;;;2.30;2.10;;;17.90;59.20;;;;;;5091560;28;20120;-72
2021/08/03 09:45:07;;;;;;;3.55;2.15;;;18.00;58.90;;;;;;5092687;28;20048;-73
2021/08/03 09:47:37;;;;;;;4.32;2.10;;;18.10;58.40;;;;;;5090884;28;20050;-74
2021/08/03 09:50:09;;;;;;;3.55;2.13;;;18.30;58.20;;;;;;5084615;28;20049;-74
2021/08/03 09:52:43;;;;;;;5.40;2.20;;;18.40;57.40;;;;;;5073054;28;20044;-77
2021/08/03 09:55:17;;;;;;;2.67;1.77;;;18.50;56.80;;;;;;5073063;28;20483;-73
2021/08/03 09:57:47;;;;;;;4.75;2.60;;;18.60;56.10;;;;;;5074012;28;20055;-73
2021/08/03 10:00:35;;;;;;;5.05;2.15;;;18.80;55.90;;;;;;5073981;28;20056;-73
2021/08/03 10:03:06;;;;;;;7.25;2.45;;;18.90;55.50;;;;;;5073250;28;20432;-73
2021/08/03 10:05:34;;;;;;;3.78;2.20;;;19.10;55.00;;;;;;5073893;28;20484;-73
2021/08/03 10:08:03;;;;;;;4.05;2.20;;;19.30;54.50;;;;;;5073640;28;20061;-74
2021/08/03 10:10:33;;;;;;;17.80;2.80;;;19.30;53.40;;;;;;5073979;28;20044;-73
2021/08/03 10:13:01;;;;;;;13.65;2.53;;;19.30;53.10;;;;;;5078357;28;20036;-74
2021/08/03 10:15:29;;;;;;;4.28;2.70;;;19.50;53.70;;;;;;5092892;28;20048;-76
2021/08/03 10:17:57;;;;;;;5.70;2.60;;;19.80;53.20;;;;;;5073477;28;20047;-73
2021/08/03 10:20:24;;;;;;;6.20;3.60;;;20.00;52.10;;;;;;5073340;28;20048;-74
2021/08/03 10:22:58;;;;;;;7.38;2.55;;;20.00;51.30;;;;;;5073421;28;20040;-74
2021/08/03 10:25:36;;;;;;;6.78;2.88;;;20.10;51.20;;;;;;5073109;28;20049;-74
2021/08/03 10:28:22;;;;;;;8.60;5.22;;;20.30;51.70;;;;;;5073248;28;20372;-75
2021/08/03 10:30:50;;;;;;;7.80;2.78;;;20.60;51.70;;;;;;5072468;28;20052;-74
2021/08/03 10:33:48;;;;;;;2.70;2.17;;;21.00;51.20;;;;;;5072685;28;20051;-75
2021/08/03 10:36:36;;;;;;;4.30;2.65;;;21.20;50.00;;;;;;5086592;28;20055;-74
2021/08/03 10:39:12;;;;;;;4.03;2.58;;;21.10;50.10;;;;;;5069403;28;20061;-74
2021/08/03 10:41:58;;;;;;;3.75;2.40;;;21.10;50.00;;;;;;5073011;28;20060;-75
2021/08/03 10:44:47;;;;;;;5.82;2.78;;;21.30;49.50;;;;;;5073008;28;20063;-75
2021/08/03 10:47:30;;;;;;;5.90;3.20;;;21.50;48.20;;;;;;5072573;28;20041;-73
2021/08/03 10:50:06;;;;;;;5.45;2.17;;;21.90;49.10;;;;;;5071515;28;20048;-73
2021/08/03 10:52:46;;;;;;;3.22;2.50;;;22.30;48.40;;;;;;5072520;28;20510;-74
2021/08/03 10:55:30;;;;;;;4.45;2.70;;;22.40;47.60;;;;;;5072962;28;20044;-74
2021/08/03 10:58:11;;;;;;;3.78;2.78;;;22.40;47.50;;;;;;5071331;28;20053;-74
2021/08/03 11:00:48;;;;;;;4.80;2.90;;;22.30;47.60;;;;;;5071166;28;20056;-74
2021/08/03 11:03:34;;;;;;;3.95;2.95;;;22.30;47.80;;;;;;5072256;28;20081;-73
2021/08/03 11:06:10;;;;;;;4.22;3.10;;;22.20;47.10;;;;;;5072584;28;20403;-75
2021/08/03 11:08:47;;;;;;;6.50;2.72;;;22.00;47.40;;;;;;5072584;28;20411;-73
2021/08/03 11:11:23;;;;;;;3.38;2.45;;;21.80;47.30;;;;;;5072967;28;20061;-73
2021/08/03 11:14:04;;;;;;;5.78;3.05;;;21.60;48.10;;;;;;5071043;28;20533;-73
2021/08/03 11:16:33;;;;;;;4.28;2.53;;;21.50;47.60;;;;;;5087783;28;20033;-75
2021/08/03 11:19:04;;;;;;;4.65;2.38;;;21.60;47.60;;;;;;5072417;28;20048;-75
2021/08/03 11:21:50;;;;;;;3.80;2.60;;;21.80;47.00;;;;;;5070580;28;20396;-74
2021/08/03 11:24:32;;;;;;;4.68;2.58;;;22.00;46.90;;;;;;5071942;28;20067;-74
2021/08/03 11:27:00;;;;;;;3.85;2.95;;;22.50;46.80;;;;;;5070937;28;20063;-74
2021/08/03 11:29:40;;;;;;;5.75;3.00;;;22.80;46.10;;;;;;5072300;28;20401;-74
2021/08/03 11:32:10;;;;;;;7.28;2.95;;;23.00;45.80;;;;;;5072832;28;20052;-75
2021/08/03 11:34:47;;;;;;;7.65;3.30;;;23.10;44.60;;;;;;5071141;28;20055;-74
2021/08/03 11:37:20;;;;;;;18.17;3.47;;;23.10;44.90;;;;;;5071224;28;20047;-73
2021/08/03 11:39:57;;;;;;;6.57;4.03;;;22.90;44.60;;;;;;5071185;28;20395;-74
2021/08/03 11:42:41;;;;;;;6.38;2.70;;;22.70;44.70;;;;;;5071979;28;20064;-74
2021/08/03 11:45:11;;;;;;;6.10;3.10;;;22.30;45.40;;;;;;5070649;28;20490;-76
2021/08/03 11:47:46;;;;;;;16.73;4.35;;;21.80;46.10;;;;;;5087507;28;20418;-74
2021/08/03 11:50:36;;;;;;;69.45;6.72;;;21.30;47.20;;;;;;5071477;28;20064;-74
2021/08/03 11:53:10;;;;;;;6.35;2.75;;;21.10;48.30;;;;;;5072065;28;20055;-74
2021/08/03 11:55:40;;;;;;;106.60;8.85;;;21.20;48.40;;;;;;5070568;28;20059;-74
2021/08/03 11:58:08;;;;;;;26.45;4.13;;;21.20;48.50;;;;;;5071374;28;20067;-74
2021/08/03 12:00:35;;;;;;;12.63;3.53;;;21.20;48.80;;;;;;5071736;28;20515;-74
2021/08/03 12:03:03;;;;;;;6.45;3.25;;;21.20;49.00;;;;;;5091284;28;20052;-74
2021/08/03 12:05:34;;;;;;;5.78;3.53;;;21.10;48.80;;;;;;5082210;28;20431;-74
2021/08/03 12:08:08;;;;;;;17.15;9.35;;;21.30;48.70;;;;;;5071980;28;20045;-74
2021/08/03 12:10:43;;;;;;;8.82;3.30;;;21.50;48.20;;;;;;5072315;28;20056;-74
2021/08/03 12:13:25;;;;;;;7.80;4.30;;;21.60;48.50;;;;;;5069882;28;20080;-74
2021/08/03 12:15:55;;;;;;;3.92;3.53;;;21.80;48.30;;;;;;5070240;28;20048;-73
2021/08/03 12:18:23;;;;;;;8.30;3.88;;;21.70;48.10;;;;;;5091498;28;20055;-74
2021/08/03 12:20:52;;;;;;;11.23;3.70;;;21.80;48.00;;;;;;5078138;28;20526;-74
2021/08/03 12:23:31;;;;;;;6.60;3.95;;;21.80;47.80;;;;;;5071632;28;20064;-73
2021/08/03 12:26:15;;;;;;;11.60;3.70;;;21.80;47.60;;;;;;5070494;28;20052;-73
2021/08/03 12:28:51;;;;;;;18.90;3.78;;;21.80;47.80;;;;;;5094982;28;20044;-74
2021/08/03 12:31:37;;;;;;;4.35;3.35;;;21.70;48.10;;;;;;5111638;28;20035;-73
2021/08/03 12:34:11;;;;;;;6.72;3.28;;;21.60;48.80;;;;;;5094897;28;20051;-73
2021/08/03 12:36:48;;;;;;;8.60;3.40;;;21.60;49.10;;;;;;5091865;28;20490;-73
2021/08/03 12:39:37;;;;;;;6.78;3.55;;;21.60;49.20;;;;;;5091797;28;20055;-73
2021/08/03 12:44:54;;;;;;;8.70;3.35;;;22.70;48.00;;;;;;5096054;28;20406;-72
2021/08/03 12:47:26;;;;;;;19.70;3.85;;;23.50;46.40;;;;;;5110315;28;20047;-74
2021/08/03 12:50:05;;;;;;;9.03;3.80;;;23.80;45.20;;;;;;5111218;28;20047;-73
2021/08/03 12:52:34;;;;;;;10.48;3.05;;;23.80;44.60;;;;;;5111145;28;20300;-75
2021/08/03 12:55:07;;;;;;;8.63;4.70;;;23.50;44.60;;;;;;5114442;28;20050;-74
2021/08/03 12:57:52;;;;;;;11.00;3.78;;;23.20;44.80;;;;;;5115813;28;20059;-74
2021/08/03 13:00:38;;;;;;;5.15;3.35;;;22.90;45.00;;;;;;5115249;28;20055;-75
2021/08/03 13:03:08;;;;;;;5.97;3.17;;;22.80;45.30;;;;;;5115138;28;20047;-75
2021/08/03 13:05:38;;;;;;;4.57;3.35;;;22.80;45.50;;;;;;5114842;28;20056;-74
2021/08/03 13:08:07;;;;;;;4.32;3.10;;;22.60;45.60;;;;;;5115752;28;20067;-74
2021/08/03 13:10:35;;;;;;;5.15;3.25;;;22.60;45.80;;;;;;5115658;28;20040;-74
2021/08/03 13:13:05;;;;;;;3.53;3.20;;;22.60;45.70;;;;;;5114212;28;20040;-74
2021/08/03 13:15:34;;;;;;;6.75;3.30;;;22.60;45.20;;;;;;5115435;28;20044;-74